sensor_id;sensor_type;location;lat;lon;timestamp;P1;durP1;ratioP1;P2;durP2;ratioP2
66669;SDS011;53568;52.164;4.472;2024-03-06T00:02:05;36.77;;;36.15;;
66669;SDS011;53568;52.164;4.472;2024-03-06T00:04:32;36.36;;;35.74;;
66669;SDS011;53568;52.164;4.472;2024-03-06T00:06:58;37.34;;;36.68;;
66669;SDS011;53568;52.164;4.472;2024-03-06T00:09:25;36.13;;;35.46;;
66669;SDS011;53568;52.164;4.472;2024-03-06T00:11:54;36.50;;;35.97;;
66669;SDS011;53568;52.164;4.472;2024-03-06T00:14:20;36.27;;;35.55;;
66669;SDS011;53568;52.164;4.472;2024-03-06T00:16:47;35.66;;;34.92;;
66669;SDS011;53568;52.164;4.472;2024-03-06T00:19:15;36.61;;;36.12;;
66669;SDS011;53568;52.164;4.472;2024-03-06T00:21:41;35.76;;;35.11;;
66669;SDS011;53568;52.164;4.472;2024-03-06T00:24:07;35.65;;;35.10;;
66669;SDS011;53568;52.164;4.472;2024-03-06T00:26:32;35.99;;;35.36;;
66669;SDS011;53568;52.164;4.472;2024-03-06T00:28:58;36.25;;;35.63;;
66669;SDS011;53568;52.164;4.472;2024-03-06T00:31:23;37.12;;;36.20;;
66669;SDS011;53568;52.164;4.472;2024-03-06T00:33:49;37.34;;;36.61;;
66669;SDS011;53568;52.164;4.472;2024-03-06T00:36:14;36.35;;;36.02;;
66669;SDS011;53568;52.164;4.472;2024-03-06T00:38:40;36.22;;;35.78;;
66669;SDS011;53568;52.164;4.472;2024-03-06T00:41:05;36.53;;;35.97;;
66669;SDS011;53568;52.164;4.472;2024-03-06T00:43:31;36.81;;;36.14;;
66669;SDS011;53568;52.164;4.472;2024-03-06T00:45:56;37.11;;;36.61;;
66669;SDS011;53568;52.164;4.472;2024-03-06T00:48:22;37.66;;;36.75;;
66669;SDS011;53568;52.164;4.472;2024-03-06T00:50:47;37.08;;;36.49;;
66669;SDS011;53568;52.164;4.472;2024-03-06T00:53:13;37.64;;;37.25;;
66669;SDS011;53568;52.164;4.472;2024-03-06T00:55:38;39.66;;;38.92;;
66669;SDS011;53568;52.164;4.472;2024-03-06T00:58:05;39.59;;;38.91;;
66669;SDS011;53568;52.164;4.472;2024-03-06T01:00:31;38.41;;;37.88;;
66669;SDS011;53568;52.164;4.472;2024-03-06T01:02:57;38.46;;;38.09;;
66669;SDS011;53568;52.164;4.472;2024-03-06T01:05:22;38.60;;;38.15;;
66669;SDS011;53568;52.164;4.472;2024-03-06T01:07:48;38.99;;;38.63;;
66669;SDS011;53568;52.164;4.472;2024-03-06T01:10:14;39.87;;;39.42;;
66669;SDS011;53568;52.164;4.472;2024-03-06T01:12:39;40.06;;;39.41;;
66669;SDS011;53568;52.164;4.472;2024-03-06T01:15:05;39.75;;;39.17;;
66669;SDS011;53568;52.164;4.472;2024-03-06T01:17:31;40.42;;;39.65;;
66669;SDS011;53568;52.164;4.472;2024-03-06T01:19:57;41.29;;;40.84;;
66669;SDS011;53568;52.164;4.472;2024-03-06T01:22:24;41.69;;;41.36;;
66669;SDS011;53568;52.164;4.472;2024-03-06T01:24:49;42.12;;;41.63;;
66669;SDS011;53568;52.164;4.472;2024-03-06T01:27:16;43.26;;;42.14;;
66669;SDS011;53568;52.164;4.472;2024-03-06T01:29:41;43.07;;;42.45;;
66669;SDS011;53568;52.164;4.472;2024-03-06T01:32:07;42.27;;;41.86;;
66669;SDS011;53568;52.164;4.472;2024-03-06T01:34:35;42.82;;;42.37;;
66669;SDS011;53568;52.164;4.472;2024-03-06T01:37:01;42.45;;;41.98;;
66669;SDS011;53568;52.164;4.472;2024-03-06T01:39:26;42.69;;;42.56;;
66669;SDS011;53568;52.164;4.472;2024-03-06T01:41:52;43.53;;;43.19;;
66669;SDS011;53568;52.164;4.472;2024-03-06T01:44:17;43.85;;;43.34;;
66669;SDS011;53568;52.164;4.472;2024-03-06T01:46:44;44.07;;;43.64;;
66669;SDS011;53568;52.164;4.472;2024-03-06T01:49:10;44.10;;;43.68;;
66669;SDS011;53568;52.164;4.472;2024-03-06T01:51:38;44.50;;;43.95;;
66669;SDS011;53568;52.164;4.472;2024-03-06T01:54:06;43.88;;;43.44;;
66669;SDS011;53568;52.164;4.472;2024-03-06T01:56:35;44.89;;;44.50;;
66669;SDS011;53568;52.164;4.472;2024-03-06T01:59:06;46.56;;;45.62;;
66669;SDS011;53568;52.164;4.472;2024-03-06T02:01:32;46.87;;;46.18;;
66669;SDS011;53568;52.164;4.472;2024-03-06T02:03:57;46.96;;;45.98;;
66669;SDS011;53568;52.164;4.472;2024-03-06T02:06:25;46.36;;;45.79;;
66669;SDS011;53568;52.164;4.472;2024-03-06T02:08:52;46.74;;;46.44;;
66669;SDS011;53568;52.164;4.472;2024-03-06T02:11:17;47.57;;;46.92;;
66669;SDS011;53568;52.164;4.472;2024-03-06T02:13:43;46.96;;;46.44;;
66669;SDS011;53568;52.164;4.472;2024-03-06T02:16:09;47.05;;;46.28;;
66669;SDS011;53568;52.164;4.472;2024-03-06T02:18:35;46.50;;;45.95;;
66669;SDS011;53568;52.164;4.472;2024-03-06T02:21:02;47.44;;;46.63;;
66669;SDS011;53568;52.164;4.472;2024-03-06T02:23:30;46.64;;;46.13;;
66669;SDS011;53568;52.164;4.472;2024-03-06T02:25:56;45.73;;;45.07;;
66669;SDS011;53568;52.164;4.472;2024-03-06T02:28:21;44.78;;;44.49;;
66669;SDS011;53568;52.164;4.472;2024-03-06T02:30:50;45.39;;;45.19;;
66669;SDS011;53568;52.164;4.472;2024-03-06T02:33:16;45.71;;;45.27;;
66669;SDS011;53568;52.164;4.472;2024-03-06T02:35:43;45.89;;;45.44;;
66669;SDS011;53568;52.164;4.472;2024-03-06T02:38:10;46.04;;;45.65;;
66669;SDS011;53568;52.164;4.472;2024-03-06T02:40:35;47.72;;;46.70;;
66669;SDS011;53568;52.164;4.472;2024-03-06T02:43:01;45.08;;;44.81;;
66669;SDS011;53568;52.164;4.472;2024-03-06T02:45:27;45.33;;;44.71;;
66669;SDS011;53568;52.164;4.472;2024-03-06T02:47:53;45.50;;;45.06;;
66669;SDS011;53568;52.164;4.472;2024-03-06T02:50:19;45.66;;;44.83;;
66669;SDS011;53568;52.164;4.472;2024-03-06T02:52:46;45.86;;;45.07;;
66669;SDS011;53568;52.164;4.472;2024-03-06T02:55:11;45.53;;;44.86;;
66669;SDS011;53568;52.164;4.472;2024-03-06T02:57:37;44.85;;;44.23;;
66669;SDS011;53568;52.164;4.472;2024-03-06T03:00:03;44.87;;;44.27;;
66669;SDS011;53568;52.164;4.472;2024-03-06T03:02:29;45.78;;;45.03;;
66669;SDS011;53568;52.164;4.472;2024-03-06T03:04:55;45.64;;;44.69;;
66669;SDS011;53568;52.164;4.472;2024-03-06T03:07:20;46.19;;;45.43;;
66669;SDS011;53568;52.164;4.472;2024-03-06T03:09:46;45.64;;;45.04;;
66669;SDS011;53568;52.164;4.472;2024-03-06T03:12:12;45.17;;;44.36;;
66669;SDS011;53568;52.164;4.472;2024-03-06T03:14:39;44.99;;;44.34;;
66669;SDS011;53568;52.164;4.472;2024-03-06T03:17:06;45.11;;;44.25;;
66669;SDS011;53568;52.164;4.472;2024-03-06T03:19:32;44.58;;;44.14;;
66669;SDS011;53568;52.164;4.472;2024-03-06T03:21:58;44.49;;;43.79;;
66669;SDS011;53568;52.164;4.472;2024-03-06T03:24:24;44.80;;;43.80;;
66669;SDS011;53568;52.164;4.472;2024-03-06T03:26:53;44.00;;;43.49;;
66669;SDS011;53568;52.164;4.472;2024-03-06T03:29:18;43.55;;;42.76;;
66669;SDS011;53568;52.164;4.472;2024-03-06T03:31:44;44.32;;;43.73;;
66669;SDS011;53568;52.164;4.472;2024-03-06T03:34:09;43.98;;;43.41;;
66669;SDS011;53568;52.164;4.472;2024-03-06T03:36:41;43.94;;;43.21;;
66669;SDS011;53568;52.164;4.472;2024-03-06T03:39:07;44.88;;;44.22;;
66669;SDS011;53568;52.164;4.472;2024-03-06T03:41:43;42.22;;;41.87;;
66669;SDS011;53568;52.164;4.472;2024-03-06T03:44:11;43.46;;;42.64;;
66669;SDS011;53568;52.164;4.472;2024-03-06T03:46:40;43.11;;;42.36;;
66669;SDS011;53568;52.164;4.472;2024-03-06T03:49:07;44.51;;;43.47;;
66669;SDS011;53568;52.164;4.472;2024-03-06T03:51:34;43.31;;;42.78;;
66669;SDS011;53568;52.164;4.472;2024-03-06T03:54:00;43.06;;;42.86;;
66669;SDS011;53568;52.164;4.472;2024-03-06T03:56:26;43.80;;;43.54;;
66669;SDS011;53568;52.164;4.472;2024-03-06T03:58:52;43.87;;;43.25;;
66669;SDS011;53568;52.164;4.472;2024-03-06T04:01:18;43.91;;;43.10;;
66669;SDS011;53568;52.164;4.472;2024-03-06T04:03:43;43.72;;;43.43;;
66669;SDS011;53568;52.164;4.472;2024-03-06T04:06:10;43.89;;;43.24;;
66669;SDS011;53568;52.164;4.472;2024-03-06T04:08:35;43.20;;;42.75;;
66669;SDS011;53568;52.164;4.472;2024-03-06T04:11:03;44.33;;;43.92;;
66669;SDS011;53568;52.164;4.472;2024-03-06T04:13:29;43.05;;;42.85;;
66669;SDS011;53568;52.164;4.472;2024-03-06T04:15:54;44.28;;;43.81;;
66669;SDS011;53568;52.164;4.472;2024-03-06T04:18:20;45.09;;;44.61;;
66669;SDS011;53568;52.164;4.472;2024-03-06T04:20:46;44.09;;;43.95;;
66669;SDS011;53568;52.164;4.472;2024-03-06T04:23:12;44.45;;;43.97;;
66669;SDS011;53568;52.164;4.472;2024-03-06T04:25:37;45.16;;;44.93;;
66669;SDS011;53568;52.164;4.472;2024-03-06T04:28:05;43.65;;;43.45;;
66669;SDS011;53568;52.164;4.472;2024-03-06T04:30:33;43.20;;;43.13;;
66669;SDS011;53568;52.164;4.472;2024-03-06T04:32:58;44.18;;;43.83;;
66669;SDS011;53568;52.164;4.472;2024-03-06T04:35:24;44.37;;;44.31;;
66669;SDS011;53568;52.164;4.472;2024-03-06T04:37:50;43.95;;;43.86;;
66669;SDS011;53568;52.164;4.472;2024-03-06T04:40:15;46.13;;;45.27;;
66669;SDS011;53568;52.164;4.472;2024-03-06T04:42:45;45.50;;;45.17;;
66669;SDS011;53568;52.164;4.472;2024-03-06T04:45:14;44.92;;;44.70;;
66669;SDS011;53568;52.164;4.472;2024-03-06T04:47:41;45.66;;;45.51;;
66669;SDS011;53568;52.164;4.472;2024-03-06T04:50:11;45.79;;;45.48;;
66669;SDS011;53568;52.164;4.472;2024-03-06T04:52:39;47.13;;;46.13;;
66669;SDS011;53568;52.164;4.472;2024-03-06T04:55:06;46.21;;;45.29;;
66669;SDS011;53568;52.164;4.472;2024-03-06T04:57:33;46.39;;;46.27;;
66669;SDS011;53568;52.164;4.472;2024-03-06T04:59:59;46.46;;;45.72;;
66669;SDS011;53568;52.164;4.472;2024-03-06T05:02:25;46.75;;;46.04;;
66669;SDS011;53568;52.164;4.472;2024-03-06T05:04:52;47.34;;;46.54;;
66669;SDS011;53568;52.164;4.472;2024-03-06T05:07:17;48.23;;;47.39;;
66669;SDS011;53568;52.164;4.472;2024-03-06T05:09:43;46.97;;;46.64;;
66669;SDS011;53568;52.164;4.472;2024-03-06T05:12:08;47.28;;;47.01;;
66669;SDS011;53568;52.164;4.472;2024-03-06T05:14:34;47.24;;;46.98;;
66669;SDS011;53568;52.164;4.472;2024-03-06T05:16:59;47.81;;;47.56;;
66669;SDS011;53568;52.164;4.472;2024-03-06T05:19:25;48.14;;;47.59;;
66669;SDS011;53568;52.164;4.472;2024-03-06T05:21:59;47.05;;;46.84;;
66669;SDS011;53568;52.164;4.472;2024-03-06T05:24:25;47.72;;;47.25;;
66669;SDS011;53568;52.164;4.472;2024-03-06T05:26:51;47.63;;;47.14;;
66669;SDS011;53568;52.164;4.472;2024-03-06T05:29:16;48.78;;;48.28;;
66669;SDS011;53568;52.164;4.472;2024-03-06T05:31:42;49.16;;;48.35;;
66669;SDS011;53568;52.164;4.472;2024-03-06T05:34:07;50.35;;;48.95;;
66669;SDS011;53568;52.164;4.472;2024-03-06T05:36:33;49.43;;;48.82;;
66669;SDS011;53568;52.164;4.472;2024-03-06T05:38:59;49.47;;;48.33;;
66669;SDS011;53568;52.164;4.472;2024-03-06T05:41:25;50.41;;;48.97;;
66669;SDS011;53568;52.164;4.472;2024-03-06T05:43:52;48.96;;;48.09;;
66669;SDS011;53568;52.164;4.472;2024-03-06T05:46:17;49.98;;;49.08;;
66669;SDS011;53568;52.164;4.472;2024-03-06T05:48:44;49.19;;;48.91;;
66669;SDS011;53568;52.164;4.472;2024-03-06T05:51:10;48.85;;;48.51;;
66669;SDS011;53568;52.164;4.472;2024-03-06T05:53:38;49.66;;;49.17;;
66669;SDS011;53568;52.164;4.472;2024-03-06T05:56:06;50.95;;;49.96;;
66669;SDS011;53568;52.164;4.472;2024-03-06T05:58:31;51.29;;;50.28;;
66669;SDS011;53568;52.164;4.472;2024-03-06T06:00:57;51.03;;;50.14;;
66669;SDS011;53568;52.164;4.472;2024-03-06T06:03:23;51.15;;;50.29;;
66669;SDS011;53568;52.164;4.472;2024-03-06T06:05:48;50.13;;;49.30;;
66669;SDS011;53568;52.164;4.472;2024-03-06T06:08:14;51.14;;;49.91;;
66669;SDS011;53568;52.164;4.472;2024-03-06T06:10:40;50.89;;;49.73;;
66669;SDS011;53568;52.164;4.472;2024-03-06T06:13:05;49.22;;;48.73;;
66669;SDS011;53568;52.164;4.472;2024-03-06T06:15:30;49.27;;;49.01;;
66669;SDS011;53568;52.164;4.472;2024-03-06T06:17:56;50.16;;;49.46;;
66669;SDS011;53568;52.164;4.472;2024-03-06T06:20:23;50.76;;;49.70;;
66669;SDS011;53568;52.164;4.472;2024-03-06T06:22:49;50.49;;;49.99;;
66669;SDS011;53568;52.164;4.472;2024-03-06T06:25:15;50.26;;;49.75;;
66669;SDS011;53568;52.164;4.472;2024-03-06T06:27:41;51.25;;;50.10;;
66669;SDS011;53568;52.164;4.472;2024-03-06T06:30:06;49.16;;;48.80;;
66669;SDS011;53568;52.164;4.472;2024-03-06T06:32:45;49.39;;;49.06;;
66669;SDS011;53568;52.164;4.472;2024-03-06T06:35:11;48.68;;;48.26;;
66669;SDS011;53568;52.164;4.472;2024-03-06T06:37:38;51.37;;;49.91;;
66669;SDS011;53568;52.164;4.472;2024-03-06T06:40:08;51.13;;;50.40;;
66669;SDS011;53568;52.164;4.472;2024-03-06T06:42:34;49.23;;;48.77;;
66669;SDS011;53568;52.164;4.472;2024-03-06T06:45:01;50.01;;;49.24;;
66669;SDS011;53568;52.164;4.472;2024-03-06T06:47:27;51.18;;;50.31;;
66669;SDS011;53568;52.164;4.472;2024-03-06T06:49:53;51.26;;;50.50;;
66669;SDS011;53568;52.164;4.472;2024-03-06T06:52:19;51.00;;;50.15;;
66669;SDS011;53568;52.164;4.472;2024-03-06T06:54:44;49.80;;;49.16;;
66669;SDS011;53568;52.164;4.472;2024-03-06T06:57:10;48.50;;;48.32;;
66669;SDS011;53568;52.164;4.472;2024-03-06T06:59:36;49.25;;;48.78;;
66669;SDS011;53568;52.164;4.472;2024-03-06T07:02:04;49.02;;;48.11;;
66669;SDS011;53568;52.164;4.472;2024-03-06T07:04:31;49.21;;;48.49;;
66669;SDS011;53568;52.164;4.472;2024-03-06T07:06:56;49.23;;;48.64;;
66669;SDS011;53568;52.164;4.472;2024-03-06T07:09:22;47.18;;;46.56;;
66669;SDS011;53568;52.164;4.472;2024-03-06T07:11:48;47.15;;;46.86;;
66669;SDS011;53568;52.164;4.472;2024-03-06T07:14:14;46.73;;;46.35;;
66669;SDS011;53568;52.164;4.472;2024-03-06T07:16:44;47.34;;;46.73;;
66669;SDS011;53568;52.164;4.472;2024-03-06T07:19:10;47.08;;;46.47;;
66669;SDS011;53568;52.164;4.472;2024-03-06T07:21:36;46.71;;;46.06;;
66669;SDS011;53568;52.164;4.472;2024-03-06T07:24:03;46.31;;;45.66;;
66669;SDS011;53568;52.164;4.472;2024-03-06T07:26:31;46.55;;;46.20;;
66669;SDS011;53568;52.164;4.472;2024-03-06T07:28:57;45.76;;;45.42;;
66669;SDS011;53568;52.164;4.472;2024-03-06T07:31:24;45.52;;;45.09;;
66669;SDS011;53568;52.164;4.472;2024-03-06T07:33:50;44.76;;;44.49;;
66669;SDS011;53568;52.164;4.472;2024-03-06T07:36:16;45.15;;;44.78;;
66669;SDS011;53568;52.164;4.472;2024-03-06T07:38:42;46.64;;;45.92;;
66669;SDS011;53568;52.164;4.472;2024-03-06T07:41:08;47.34;;;46.43;;
66669;SDS011;53568;52.164;4.472;2024-03-06T07:43:33;45.68;;;45.22;;
66669;SDS011;53568;52.164;4.472;2024-03-06T07:45:59;46.15;;;45.44;;
66669;SDS011;53568;52.164;4.472;2024-03-06T07:48:25;44.91;;;44.57;;
66669;SDS011;53568;52.164;4.472;2024-03-06T07:50:51;44.12;;;43.86;;
66669;SDS011;53568;52.164;4.472;2024-03-06T07:53:17;43.41;;;42.98;;
66669;SDS011;53568;52.164;4.472;2024-03-06T07:55:42;43.01;;;42.55;;
66669;SDS011;53568;52.164;4.472;2024-03-06T07:58:09;44.65;;;44.17;;
66669;SDS011;53568;52.164;4.472;2024-03-06T08:00:35;43.03;;;43.01;;
66669;SDS011;53568;52.164;4.472;2024-03-06T08:03:00;44.04;;;43.87;;
66669;SDS011;53568;52.164;4.472;2024-03-06T08:05:27;43.53;;;43.33;;
66669;SDS011;53568;52.164;4.472;2024-03-06T08:07:53;43.07;;;42.83;;
66669;SDS011;53568;52.164;4.472;2024-03-06T08:10:19;43.03;;;42.73;;
66669;SDS011;53568;52.164;4.472;2024-03-06T08:12:44;41.84;;;41.72;;
66669;SDS011;53568;52.164;4.472;2024-03-06T08:15:13;42.34;;;42.12;;
66669;SDS011;53568;52.164;4.472;2024-03-06T08:17:40;41.99;;;41.66;;
66669;SDS011;53568;52.164;4.472;2024-03-06T08:20:09;41.22;;;40.99;;
66669;SDS011;53568;52.164;4.472;2024-03-06T08:22:39;41.42;;;41.28;;
66669;SDS011;53568;52.164;4.472;2024-03-06T08:25:09;41.58;;;41.44;;
66669;SDS011;53568;52.164;4.472;2024-03-06T08:27:39;41.03;;;41.01;;
66669;SDS011;53568;52.164;4.472;2024-03-06T08:30:06;42.46;;;42.15;;
66669;SDS011;53568;52.164;4.472;2024-03-06T08:32:34;42.28;;;42.10;;
66669;SDS011;53568;52.164;4.472;2024-03-06T08:35:02;41.66;;;41.40;;
66669;SDS011;53568;52.164;4.472;2024-03-06T08:37:31;42.07;;;42.03;;
66669;SDS011;53568;52.164;4.472;2024-03-06T08:39:58;42.02;;;42.01;;
66669;SDS011;53568;52.164;4.472;2024-03-06T08:42:24;42.46;;;42.40;;
66669;SDS011;53568;52.164;4.472;2024-03-06T08:44:50;43.52;;;43.43;;
66669;SDS011;53568;52.164;4.472;2024-03-06T08:47:16;43.57;;;43.46;;
66669;SDS011;53568;52.164;4.472;2024-03-06T08:49:42;43.68;;;43.23;;
66669;SDS011;53568;52.164;4.472;2024-03-06T08:52:07;44.96;;;44.85;;
66669;SDS011;53568;52.164;4.472;2024-03-06T08:54:35;43.97;;;43.84;;
66669;SDS011;53568;52.164;4.472;2024-03-06T08:57:05;44.22;;;44.10;;
66669;SDS011;53568;52.164;4.472;2024-03-06T08:59:33;44.62;;;44.54;;
66669;SDS011;53568;52.164;4.472;2024-03-06T09:02:10;43.98;;;43.77;;
66669;SDS011;53568;52.164;4.472;2024-03-06T09:04:41;45.37;;;44.97;;
66669;SDS011;53568;52.164;4.472;2024-03-06T09:07:07;45.82;;;45.48;;
66669;SDS011;53568;52.164;4.472;2024-03-06T09:09:33;44.26;;;43.99;;
66669;SDS011;53568;52.164;4.472;2024-03-06T09:12:00;43.25;;;43.13;;
66669;SDS011;53568;52.164;4.472;2024-03-06T09:14:26;43.42;;;43.37;;
66669;SDS011;53568;52.164;4.472;2024-03-06T09:16:52;43.67;;;43.49;;
66669;SDS011;53568;52.164;4.472;2024-03-06T09:19:17;44.00;;;43.86;;
66669;SDS011;53568;52.164;4.472;2024-03-06T09:21:43;44.68;;;44.68;;
66669;SDS011;53568;52.164;4.472;2024-03-06T09:24:08;45.43;;;45.34;;
66669;SDS011;53568;52.164;4.472;2024-03-06T09:26:34;44.89;;;44.71;;
66669;SDS011;53568;52.164;4.472;2024-03-06T09:29:00;45.05;;;44.83;;
66669;SDS011;53568;52.164;4.472;2024-03-06T09:31:26;45.53;;;45.33;;
66669;SDS011;53568;52.164;4.472;2024-03-06T09:33:53;45.54;;;45.53;;
66669;SDS011;53568;52.164;4.472;2024-03-06T09:36:18;45.29;;;45.19;;
66669;SDS011;53568;52.164;4.472;2024-03-06T09:38:44;46.92;;;46.55;;
66669;SDS011;53568;52.164;4.472;2024-03-06T09:41:09;48.08;;;47.20;;
66669;SDS011;53568;52.164;4.472;2024-03-06T09:43:35;48.49;;;47.99;;
66669;SDS011;53568;52.164;4.472;2024-03-06T09:46:01;49.33;;;48.24;;
66669;SDS011;53568;52.164;4.472;2024-03-06T09:48:29;47.08;;;46.66;;
66669;SDS011;53568;52.164;4.472;2024-03-06T09:50:57;46.45;;;46.38;;
66669;SDS011;53568;52.164;4.472;2024-03-06T09:53:27;45.55;;;45.36;;
66669;SDS011;53568;52.164;4.472;2024-03-06T09:55:54;45.03;;;44.76;;
66669;SDS011;53568;52.164;4.472;2024-03-06T09:58:22;42.08;;;42.00;;
66669;SDS011;53568;52.164;4.472;2024-03-06T10:00:49;41.60;;;41.06;;
66669;SDS011;53568;52.164;4.472;2024-03-06T10:03:16;39.03;;;38.68;;
66669;SDS011;53568;52.164;4.472;2024-03-06T10:05:42;38.64;;;38.44;;
66669;SDS011;53568;52.164;4.472;2024-03-06T10:08:08;37.72;;;37.09;;
66669;SDS011;53568;52.164;4.472;2024-03-06T10:10:35;35.37;;;35.26;;
66669;SDS011;53568;52.164;4.472;2024-03-06T10:13:01;35.18;;;35.13;;
66669;SDS011;53568;52.164;4.472;2024-03-06T10:15:27;35.51;;;35.36;;
66669;SDS011;53568;52.164;4.472;2024-03-06T10:18:15;34.01;;;33.80;;
66669;SDS011;53568;52.164;4.472;2024-03-06T10:20:40;34.95;;;34.84;;
66669;SDS011;53568;52.164;4.472;2024-03-06T10:23:09;35.23;;;34.74;;
66669;SDS011;53568;52.164;4.472;2024-03-06T10:25:35;32.77;;;32.68;;
66669;SDS011;53568;52.164;4.472;2024-03-06T10:28:08;33.27;;;32.96;;
66669;SDS011;53568;52.164;4.472;2024-03-06T10:30:35;32.86;;;32.17;;
66669;SDS011;53568;52.164;4.472;2024-03-06T10:33:04;31.70;;;31.25;;
66669;SDS011;53568;52.164;4.472;2024-03-06T10:35:36;31.21;;;30.45;;
66669;SDS011;53568;52.164;4.472;2024-03-06T10:38:05;29.41;;;29.32;;
66669;SDS011;53568;52.164;4.472;2024-03-06T10:40:36;29.85;;;29.66;;
66669;SDS011;53568;52.164;4.472;2024-03-06T10:43:04;30.20;;;29.77;;
66669;SDS011;53568;52.164;4.472;2024-03-06T10:45:47;30.36;;;30.04;;
66669;SDS011;53568;52.164;4.472;2024-03-06T10:48:21;29.39;;;29.22;;
66669;SDS011;53568;52.164;4.472;2024-03-06T10:50:47;28.38;;;28.09;;
66669;SDS011;53568;52.164;4.472;2024-03-06T10:53:17;28.90;;;28.75;;
66669;SDS011;53568;52.164;4.472;2024-03-06T10:55:43;30.49;;;30.27;;
66669;SDS011;53568;52.164;4.472;2024-03-06T10:58:10;30.51;;;30.19;;
66669;SDS011;53568;52.164;4.472;2024-03-06T11:00:40;30.48;;;30.35;;
66669;SDS011;53568;52.164;4.472;2024-03-06T11:03:08;29.84;;;29.61;;
66669;SDS011;53568;52.164;4.472;2024-03-06T11:05:38;29.52;;;29.16;;
66669;SDS011;53568;52.164;4.472;2024-03-06T11:08:14;31.51;;;30.86;;
66669;SDS011;53568;52.164;4.472;2024-03-06T11:10:42;31.58;;;31.52;;
66669;SDS011;53568;52.164;4.472;2024-03-06T11:13:09;30.85;;;30.85;;
66669;SDS011;53568;52.164;4.472;2024-03-06T11:15:51;28.77;;;28.51;;
66669;SDS011;53568;52.164;4.472;2024-03-06T11:27:02;26.13;;;25.98;;
66669;SDS011;53568;52.164;4.472;2024-03-06T11:32:57;25.94;;;25.70;;
66669;SDS011;53568;52.164;4.472;2024-03-06T11:35:29;22.89;;;22.63;;
66669;SDS011;53568;52.164;4.472;2024-03-06T11:37:55;21.59;;;21.59;;
66669;SDS011;53568;52.164;4.472;2024-03-06T11:40:22;19.35;;;19.03;;
66669;SDS011;53568;52.164;4.472;2024-03-06T11:42:52;17.69;;;17.68;;
66669;SDS011;53568;52.164;4.472;2024-03-06T11:45:18;17.23;;;17.14;;
66669;SDS011;53568;52.164;4.472;2024-03-06T11:47:59;15.80;;;15.79;;
66669;SDS011;53568;52.164;4.472;2024-03-06T11:50:27;16.37;;;16.28;;
66669;SDS011;53568;52.164;4.472;2024-03-06T11:52:53;16.17;;;16.08;;
66669;SDS011;53568;52.164;4.472;2024-03-06T11:55:22;15.73;;;15.68;;
66669;SDS011;53568;52.164;4.472;2024-03-06T11:57:51;16.08;;;16.01;;
66669;SDS011;53568;52.164;4.472;2024-03-06T12:00:20;15.88;;;15.81;;
66669;SDS011;53568;52.164;4.472;2024-03-06T12:02:47;14.99;;;14.95;;
66669;SDS011;53568;52.164;4.472;2024-03-06T12:05:12;15.32;;;15.30;;
66669;SDS011;53568;52.164;4.472;2024-03-06T12:07:48;15.43;;;15.40;;
66669;SDS011;53568;52.164;4.472;2024-03-06T12:10:18;15.51;;;15.44;;
66669;SDS011;53568;52.164;4.472;2024-03-06T12:12:44;15.64;;;15.57;;
66669;SDS011;53568;52.164;4.472;2024-03-06T12:15:10;15.17;;;15.15;;
66669;SDS011;53568;52.164;4.472;2024-03-06T12:17:47;15.80;;;15.69;;
66669;SDS011;53568;52.164;4.472;2024-03-06T12:20:17;15.76;;;15.49;;
66669;SDS011;53568;52.164;4.472;2024-03-06T12:22:44;16.23;;;15.92;;
66669;SDS011;53568;52.164;4.472;2024-03-06T12:25:10;16.38;;;15.90;;
66669;SDS011;53568;52.164;4.472;2024-03-06T12:27:42;16.14;;;15.84;;
66669;SDS011;53568;52.164;4.472;2024-03-06T12:30:08;15.12;;;15.08;;
66669;SDS011;53568;52.164;4.472;2024-03-06T12:32:38;14.41;;;14.28;;
66669;SDS011;53568;52.164;4.472;2024-03-06T12:35:04;13.96;;;13.72;;
66669;SDS011;53568;52.164;4.472;2024-03-06T12:37:30;12.27;;;12.21;;
66669;SDS011;53568;52.164;4.472;2024-03-06T12:39:57;13.01;;;12.98;;
66669;SDS011;53568;52.164;4.472;2024-03-06T12:42:22;14.99;;;14.88;;
66669;SDS011;53568;52.164;4.472;2024-03-06T12:44:49;13.97;;;13.89;;
66669;SDS011;53568;52.164;4.472;2024-03-06T12:47:15;11.73;;;11.72;;
66669;SDS011;53568;52.164;4.472;2024-03-06T12:49:41;13.74;;;13.74;;
66669;SDS011;53568;52.164;4.472;2024-03-06T12:52:06;13.78;;;13.74;;
66669;SDS011;53568;52.164;4.472;2024-03-06T12:54:32;13.58;;;13.57;;
66669;SDS011;53568;52.164;4.472;2024-03-06T12:56:57;13.95;;;13.95;;
66669;SDS011;53568;52.164;4.472;2024-03-06T12:59:23;13.60;;;13.57;;
66669;SDS011;53568;52.164;4.472;2024-03-06T13:01:49;14.26;;;14.20;;
66669;SDS011;53568;52.164;4.472;2024-03-06T13:04:14;16.06;;;15.94;;
66669;SDS011;53568;52.164;4.472;2024-03-06T13:06:40;14.99;;;14.86;;
66669;SDS011;53568;52.164;4.472;2024-03-06T13:09:05;14.37;;;14.29;;
66669;SDS011;53568;52.164;4.472;2024-03-06T13:11:34;14.45;;;14.23;;
66669;SDS011;53568;52.164;4.472;2024-03-06T13:14:00;13.39;;;13.39;;
66669;SDS011;53568;52.164;4.472;2024-03-06T13:16:26;13.75;;;13.67;;
66669;SDS011;53568;52.164;4.472;2024-03-06T13:18:52;13.80;;;13.80;;
66669;SDS011;53568;52.164;4.472;2024-03-06T13:21:22;13.22;;;13.22;;
66669;SDS011;53568;52.164;4.472;2024-03-06T13:23:48;12.64;;;12.59;;
66669;SDS011;53568;52.164;4.472;2024-03-06T13:26:14;12.79;;;12.69;;
66669;SDS011;53568;52.164;4.472;2024-03-06T13:28:40;12.77;;;12.75;;
66669;SDS011;53568;52.164;4.472;2024-03-06T13:31:05;13.00;;;12.91;;
66669;SDS011;53568;52.164;4.472;2024-03-06T13:33:32;11.97;;;11.94;;
66669;SDS011;53568;52.164;4.472;2024-03-06T13:35:58;11.95;;;11.88;;
66669;SDS011;53568;52.164;4.472;2024-03-06T13:38:24;12.65;;;12.65;;
66669;SDS011;53568;52.164;4.472;2024-03-06T13:40:49;12.35;;;12.35;;
66669;SDS011;53568;52.164;4.472;2024-03-06T13:43:15;11.49;;;11.48;;
66669;SDS011;53568;52.164;4.472;2024-03-06T13:45:50;11.06;;;11.05;;
66669;SDS011;53568;52.164;4.472;2024-03-06T13:48:16;11.62;;;11.62;;
66669;SDS011;53568;52.164;4.472;2024-03-06T13:50:42;11.70;;;11.68;;
66669;SDS011;53568;52.164;4.472;2024-03-06T13:53:09;11.83;;;11.75;;
66669;SDS011;53568;52.164;4.472;2024-03-06T13:55:35;11.76;;;11.75;;
66669;SDS011;53568;52.164;4.472;2024-03-06T13:58:01;11.70;;;11.70;;
66669;SDS011;53568;52.164;4.472;2024-03-06T14:00:27;12.29;;;12.24;;
66669;SDS011;53568;52.164;4.472;2024-03-06T14:02:53;12.07;;;12.07;;
66669;SDS011;53568;52.164;4.472;2024-03-06T14:05:18;11.77;;;11.77;;
66669;SDS011;53568;52.164;4.472;2024-03-06T14:07:50;11.91;;;11.91;;
66669;SDS011;53568;52.164;4.472;2024-03-06T14:10:16;21.51;;;21.51;;
66669;SDS011;53568;52.164;4.472;2024-03-06T14:12:44;33.27;;;33.23;;
66669;SDS011;53568;52.164;4.472;2024-03-06T14:15:10;32.83;;;32.57;;
66669;SDS011;53568;52.164;4.472;2024-03-06T14:17:40;36.93;;;36.69;;
66669;SDS011;53568;52.164;4.472;2024-03-06T14:20:06;47.06;;;46.36;;
66669;SDS011;53568;52.164;4.472;2024-03-06T14:22:33;47.58;;;46.81;;
66669;SDS011;53568;52.164;4.472;2024-03-06T14:24:58;51.76;;;50.59;;
66669;SDS011;53568;52.164;4.472;2024-03-06T14:27:24;50.86;;;49.93;;
66669;SDS011;53568;52.164;4.472;2024-03-06T14:29:50;47.22;;;47.03;;
66669;SDS011;53568;52.164;4.472;2024-03-06T14:32:17;42.28;;;41.69;;